Time;durP1;ratioP1;P1;durP2;ratioP2;P2;SDS_P1;SDS_P2;PMS_P1;PMS_P2;Temp;Humidity;BMP_temperature;BMP_pressure;BME280_temperature;BME280_humidity;BME280_pressure;Samples;Min_cycle;Max_cycle;Signal;HPM_P1;HPM_P2
2020/12/07 00:01:15;;;;;;;15.03;11.90;;;3.30;99.90;;;;;;5071953;28;20463;-74
2020/12/07 00:03:42;;;;;;;15.67;11.80;;;3.40;99.90;;;;;;5072018;28;20443;-74
2020/12/07 00:06:10;;;;;;;14.17;10.50;;;3.40;99.90;;;;;;5074882;28;20477;-74
2020/12/07 00:08:37;;;;;;;11.53;10.33;;;3.40;99.90;;;;;;5075984;28;20829;-74
2020/12/07 00:11:03;;;;;;;14.63;11.33;;;3.40;99.90;;;;;;5075688;28;20457;-74
2020/12/07 00:13:30;;;;;;;14.40;11.13;;;3.40;99.90;;;;;;5076080;28;20434;-74
2020/12/07 00:15:56;;;;;;;14.37;10.40;;;3.40;99.90;;;;;;5076220;28;20477;-74
2020/12/07 00:18:23;;;;;;;13.80;10.50;;;3.40;99.90;;;;;;5075764;28;20439;-74
2020/12/07 00:20:49;;;;;;;11.20;9.47;;;3.40;99.90;;;;;;5075849;28;20488;-74
2020/12/07 00:23:17;;;;;;;11.83;10.10;;;3.40;99.90;;;;;;5075924;28;20455;-74
2020/12/07 00:25:43;;;;;;;13.77;10.50;;;3.40;99.90;;;;;;5075692;28;20482;-74
2020/12/07 00:28:10;;;;;;;12.43;9.80;;;3.40;99.90;;;;;;5075878;28;20466;-74
2020/12/07 00:30:37;;;;;;;11.93;8.87;;;3.40;99.90;;;;;;5075730;28;20449;-74
2020/12/07 00:33:03;;;;;;;11.80;9.07;;;3.50;99.90;;;;;;5076115;28;20455;-73
2020/12/07 00:35:30;;;;;;;12.23;9.33;;;3.40;99.90;;;;;;5076674;28;20432;-74
2020/12/07 00:37:56;;;;;;;13.60;10.07;;;3.50;99.90;;;;;;5076548;28;20438;-74
2020/12/07 00:40:24;;;;;;;9.73;8.47;;;3.40;99.90;;;;;;5075716;28;20439;-74
2020/12/07 00:42:50;;;;;;;11.40;8.70;;;3.40;99.90;;;;;;5077130;28;20455;-74
2020/12/07 00:45:17;;;;;;;10.03;7.90;;;3.50;99.90;;;;;;5079831;28;20876;-74
2020/12/07 00:47:43;;;;;;;11.87;8.80;;;3.50;99.90;;;;;;5079013;28;20431;-74
2020/12/07 00:50:10;;;;;;;9.83;8.20;;;3.40;99.90;;;;;;5075877;28;20427;-74
2020/12/07 00:52:37;;;;;;;12.07;8.90;;;3.50;99.90;;;;;;5074866;28;21025;-74
2020/12/07 00:55:05;;;;;;;13.43;8.93;;;3.50;99.90;;;;;;5076664;28;20466;-74
2020/12/07 00:57:32;;;;;;;10.43;8.30;;;3.50;99.90;;;;;;5078150;28;20924;-73
2020/12/07 00:59:59;;;;;;;11.00;9.90;;;3.40;99.90;;;;;;5075634;28;20434;-74
2020/12/07 01:02:25;;;;;;;10.70;8.60;;;3.40;99.90;;;;;;5076489;28;20451;-74
2020/12/07 01:04:52;;;;;;;11.57;9.23;;;3.40;99.90;;;;;;5076179;28;20475;-74
2020/12/07 01:07:19;;;;;;;10.97;9.40;;;3.40;99.90;;;;;;5075836;28;20438;-74
2020/12/07 01:09:45;;;;;;;10.00;8.87;;;3.40;99.90;;;;;;5076082;28;20433;-74
2020/12/07 01:12:12;;;;;;;10.00;7.97;;;3.40;99.90;;;;;;5076461;28;20520;-74
2020/12/07 01:14:39;;;;;;;10.93;8.40;;;3.40;99.90;;;;;;5076491;28;20435;-74
2020/12/07 01:17:06;;;;;;;14.30;8.73;;;3.50;99.90;;;;;;5079814;28;20428;-73
2020/12/07 01:19:32;;;;;;;9.50;8.00;;;3.50;99.90;;;;;;5085494;28;20436;-74
2020/12/07 01:21:59;;;;;;;9.80;8.03;;;3.50;99.90;;;;;;5074510;28;20525;-74
2020/12/07 01:24:25;;;;;;;10.80;7.90;;;3.50;99.90;;;;;;5074494;28;20435;-74
2020/12/07 01:26:52;;;;;;;10.97;7.90;;;3.50;99.90;;;;;;5074501;28;20471;-73
2020/12/07 01:29:18;;;;;;;9.83;8.27;;;3.50;99.90;;;;;;5075188;28;20443;-74
2020/12/07 01:31:46;;;;;;;11.03;7.70;;;3.50;99.90;;;;;;5074261;28;20505;-74
2020/12/07 01:34:12;;;;;;;10.20;8.07;;;3.50;99.90;;;;;;5074574;28;20818;-73
2020/12/07 01:36:39;;;;;;;9.87;8.20;;;3.40;99.90;;;;;;5074912;28;20439;-74
2020/12/07 01:39:05;;;;;;;8.37;7.20;;;3.50;99.90;;;;;;5074805;28;20439;-73
2020/12/07 01:41:32;;;;;;;8.63;6.90;;;3.50;99.90;;;;;;5073781;28;20460;-74
2020/12/07 01:43:59;;;;;;;8.40;6.90;;;3.50;99.90;;;;;;5074316;28;20431;-74
2020/12/07 01:46:25;;;;;;;9.50;6.83;;;3.50;99.90;;;;;;5074499;28;20528;-73
2020/12/07 01:48:53;;;;;;;10.07;7.20;;;3.40;99.90;;;;;;5078320;28;20441;-74
2020/12/07 01:51:22;;;;;;;10.10;6.27;;;3.50;99.90;;;;;;5082172;28;20478;-74
2020/12/07 01:53:49;;;;;;;8.37;6.63;;;3.40;99.90;;;;;;5082357;28;20427;-74
2020/12/07 01:56:20;;;;;;;8.47;6.47;;;3.40;99.90;;;;;;5074671;28;20442;-74
2020/12/07 01:58:46;;;;;;;12.40;6.90;;;3.40;99.90;;;;;;5078585;28;20489;-74
2020/12/07 02:01:13;;;;;;;9.00;6.83;;;3.40;99.90;;;;;;5081734;28;20439;-74
2020/12/07 02:03:40;;;;;;;8.63;6.60;;;3.40;99.90;;;;;;5081901;28;20439;-74
2020/12/07 02:06:07;;;;;;;9.90;7.37;;;3.40;99.90;;;;;;5080052;28;20471;-74
2020/12/07 02:08:34;;;;;;;9.60;7.03;;;3.40;99.90;;;;;;5074446;28;20927;-74
2020/12/07 02:11:02;;;;;;;10.70;7.33;;;3.40;99.90;;;;;;5074141;28;20489;-74
2020/12/07 02:13:30;;;;;;;7.97;6.30;;;3.40;99.90;;;;;;5074480;28;20435;-74
2020/12/07 02:15:56;;;;;;;7.80;6.40;;;3.40;99.90;;;;;;5074491;28;20561;-74
2020/12/07 02:18:23;;;;;;;8.07;6.07;;;3.40;99.90;;;;;;5074314;28;20436;-74
2020/12/07 02:20:50;;;;;;;7.63;5.93;;;3.40;99.90;;;;;;5074075;28;20838;-74
2020/12/07 02:23:17;;;;;;;7.10;6.40;;;3.40;99.90;;;;;;5074697;28;20485;-74
2020/12/07 02:25:43;;;;;;;8.80;6.67;;;3.40;99.90;;;;;;5074352;28;20841;-73
2020/12/07 02:28:10;;;;;;;8.07;6.40;;;3.50;99.90;;;;;;5073495;28;20465;-74
2020/12/07 02:30:36;;;;;;;7.63;6.20;;;3.40;99.90;;;;;;5073999;28;20453;-74
2020/12/07 02:33:03;;;;;;;7.97;6.57;;;3.40;99.90;;;;;;5074284;28;20458;-74
2020/12/07 02:35:30;;;;;;;11.80;6.37;;;3.40;99.90;;;;;;5073768;28;20447;-74
2020/12/07 02:37:57;;;;;;;9.97;5.97;;;3.50;99.90;;;;;;5073955;28;20468;-74
2020/12/07 02:40:24;;;;;;;7.80;6.27;;;3.50;99.90;;;;;;5074069;28;20481;-74
2020/12/07 02:42:50;;;;;;;6.67;5.03;;;3.50;99.90;;;;;;5073804;28;20462;-74
2020/12/07 02:45:18;;;;;;;6.40;4.70;;;3.50;99.90;;;;;;5073819;28;20532;-74
2020/12/07 02:47:45;;;;;;;8.43;6.50;;;3.50;99.90;;;;;;5074075;28;20872;-74
2020/12/07 02:50:13;;;;;;;7.80;6.00;;;3.50;99.90;;;;;;5073592;28;20432;-74
2020/12/07 02:52:40;;;;;;;7.10;6.10;;;3.50;99.90;;;;;;5074290;28;20443;-74
2020/12/07 02:55:08;;;;;;;7.33;5.83;;;3.50;99.90;;;;;;5074175;28;20434;-74
2020/12/07 02:57:35;;;;;;;7.23;5.50;;;3.60;99.90;;;;;;5073426;28;20442;-74
2020/12/07 03:00:03;;;;;;;7.10;6.20;;;3.50;99.90;;;;;;5073285;28;20969;-74
2020/12/07 03:02:29;;;;;;;6.00;5.40;;;3.50;99.90;;;;;;5073487;28;20459;-74
2020/12/07 03:04:56;;;;;;;7.60;6.37;;;3.50;99.90;;;;;;5073762;28;20677;-74
2020/12/07 03:07:22;;;;;;;6.40;5.50;;;3.50;99.90;;;;;;5073145;28;20436;-74
2020/12/07 03:09:49;;;;;;;6.63;5.90;;;3.50;99.90;;;;;;5073498;28;20439;-74
2020/12/07 03:12:16;;;;;;;6.43;4.90;;;3.50;99.90;;;;;;5073030;28;20517;-74
2020/12/07 03:14:43;;;;;;;6.57;5.40;;;3.60;99.90;;;;;;5073281;28;20439;-74
2020/12/07 03:17:09;;;;;;;7.43;5.40;;;3.50;99.90;;;;;;5073566;28;20443;-74
2020/12/07 03:19:36;;;;;;;6.33;5.20;;;3.50;99.90;;;;;;5072994;28;20435;-74
2020/12/07 03:22:02;;;;;;;8.77;5.10;;;3.60;99.90;;;;;;5072711;28;20455;-74
2020/12/07 03:24:29;;;;;;;8.03;5.50;;;3.60;99.90;;;;;;5073077;28;20458;-74
2020/12/07 03:26:55;;;;;;;7.43;5.50;;;3.60;99.90;;;;;;5072950;28;20478;-74
2020/12/07 03:29:23;;;;;;;6.00;4.70;;;3.60;99.90;;;;;;5072172;28;20435;-74
2020/12/07 03:31:49;;;;;;;8.20;5.17;;;3.60;99.90;;;;;;5072295;28;20944;-74
2020/12/07 03:34:16;;;;;;;11.27;5.90;;;3.60;99.90;;;;;;5072895;28;20431;-74
2020/12/07 03:36:42;;;;;;;6.70;5.03;;;3.60;99.90;;;;;;5072651;28;20435;-74
2020/12/07 03:39:09;;;;;;;6.47;5.20;;;3.60;99.90;;;;;;5073639;28;20480;-74
2020/12/07 03:41:36;;;;;;;7.53;5.93;;;3.60;99.90;;;;;;5076185;28;20455;-74
2020/12/07 03:44:03;;;;;;;6.03;5.20;;;3.60;99.90;;;;;;5077176;28;20468;-74
2020/12/07 03:46:30;;;;;;;5.87;5.10;;;3.60;99.90;;;;;;5077031;28;20536;-74
2020/12/07 03:48:57;;;;;;;5.60;4.97;;;3.60;99.90;;;;;;5077070;28;20431;-74
2020/12/07 03:51:23;;;;;;;7.00;5.07;;;3.60;99.90;;;;;;5076384;28;20505;-74
2020/12/07 03:53:50;;;;;;;6.60;4.90;;;3.60;99.90;;;;;;5076738;28;20473;-74
2020/12/07 03:56:16;;;;;;;6.40;4.70;;;3.70;99.90;;;;;;5076517;28;20797;-74
2020/12/07 03:58:43;;;;;;;7.13;5.00;;;3.60;99.90;;;;;;5076419;28;20427;-74
2020/12/07 04:01:10;;;;;;;6.77;4.70;;;3.60;99.90;;;;;;5076340;28;20431;-74
2020/12/07 04:03:39;;;;;;;6.10;4.40;;;3.60;99.90;;;;;;5076668;28;20431;-74
2020/12/07 04:06:10;;;;;;;7.23;5.07;;;3.60;99.90;;;;;;5075765;28;20466;-74
2020/12/07 04:08:36;;;;;;;5.93;4.83;;;3.60;99.90;;;;;;5075799;28;20489;-74
2020/12/07 04:11:03;;;;;;;6.63;4.60;;;3.60;99.90;;;;;;5075028;28;20476;-74
2020/12/07 04:13:30;;;;;;;4.60;4.10;;;3.60;99.90;;;;;;5075847;28;20450;-74
2020/12/07 04:15:56;;;;;;;5.17;4.43;;;3.60;99.90;;;;;;5075258;28;20431;-75
2020/12/07 04:18:23;;;;;;;5.53;4.93;;;3.60;99.90;;;;;;5075275;28;20438;-74
2020/12/07 04:20:51;;;;;;;5.80;4.63;;;3.60;99.90;;;;;;5075268;28;20447;-74
2020/12/07 04:23:17;;;;;;;6.00;4.87;;;3.60;99.90;;;;;;5075096;28;20431;-74
2020/12/07 04:25:44;;;;;;;5.40;4.23;;;3.60;99.90;;;;;;5074804;28;20482;-74
2020/12/07 04:28:10;;;;;;;6.87;4.80;;;3.60;99.90;;;;;;5075277;28;20451;-74
2020/12/07 04:30:39;;;;;;;5.37;4.50;;;3.60;99.90;;;;;;5077545;28;20427;-74
2020/12/07 04:33:06;;;;;;;5.93;4.47;;;3.50;99.90;;;;;;5077354;28;20837;-74
2020/12/07 04:35:33;;;;;;;6.27;4.83;;;3.50;99.90;;;;;;5076140;28;20435;-74
2020/12/07 04:38:01;;;;;;;6.60;5.57;;;3.60;99.90;;;;;;5075564;28;20469;-74
2020/12/07 04:40:28;;;;;;;5.70;4.90;;;3.60;99.90;;;;;;5075357;28;20553;-74
2020/12/07 04:42:55;;;;;;;5.50;4.43;;;3.60;99.90;;;;;;5075635;28;20455;-74
2020/12/07 04:45:22;;;;;;;6.00;4.50;;;3.60;99.90;;;;;;5076023;28;20475;-74
2020/12/07 04:47:51;;;;;;;7.80;5.60;;;3.50;99.90;;;;;;5076083;28;20446;-74
2020/12/07 04:50:18;;;;;;;6.07;5.47;;;3.60;99.90;;;;;;5076384;28;20550;-74
2020/12/07 04:52:45;;;;;;;6.37;4.90;;;3.60;99.90;;;;;;5075449;28;20835;-74
2020/12/07 04:55:13;;;;;;;6.30;5.07;;;3.60;99.90;;;;;;5075785;28;20493;-74
2020/12/07 04:57:40;;;;;;;5.67;4.50;;;3.60;99.90;;;;;;5075346;28;20439;-74
2020/12/07 05:00:06;;;;;;;5.77;4.97;;;3.60;99.90;;;;;;5075336;28;20432;-74
2020/12/07 05:02:37;;;;;;;7.97;5.43;;;3.60;99.90;;;;;;5074570;28;20466;-74
2020/12/07 05:05:05;;;;;;;5.70;4.80;;;3.60;99.90;;;;;;5074719;28;20482;-74
2020/12/07 05:07:33;;;;;;;6.43;4.30;;;3.60;99.90;;;;;;5075322;28;20443;-74
2020/12/07 05:10:04;;;;;;;9.30;5.97;;;3.60;99.90;;;;;;5074829;28;20864;-74
2020/12/07 05:12:38;;;;;;;7.00;4.80;;;3.60;99.90;;;;;;5075288;28;20458;-74
2020/12/07 05:15:10;;;;;;;6.03;4.50;;;3.60;99.90;;;;;;5075366;28;20501;-74
2020/12/07 05:17:38;;;;;;;7.00;5.07;;;3.50;99.90;;;;;;5075327;28;20444;-74
2020/12/07 05:20:05;;;;;;;5.53;4.77;;;3.60;99.90;;;;;;5074712;28;20450;-74
2020/12/07 05:22:34;;;;;;;6.60;4.80;;;3.60;99.90;;;;;;5075444;28;20455;-74
2020/12/07 05:25:04;;;;;;;5.37;4.87;;;3.60;99.90;;;;;;5075028;28;20522;-74
2020/12/07 05:27:33;;;;;;;7.27;5.83;;;3.60;99.90;;;;;;5074768;28;20455;-74
2020/12/07 05:30:08;;;;;;;6.67;5.27;;;3.60;99.90;;;;;;5074370;28;20463;-74
2020/12/07 05:32:36;;;;;;;6.37;4.90;;;3.60;99.90;;;;;;5074946;28;20534;-74
2020/12/07 05:35:05;;;;;;;5.67;4.90;;;3.60;99.90;;;;;;5074655;28;20893;-74
2020/12/07 05:37:32;;;;;;;6.63;5.13;;;3.60;99.90;;;;;;5075609;28;20439;-74
2020/12/07 05:40:03;;;;;;;5.90;4.77;;;3.60;99.90;;;;;;5075387;28;20443;-74
2020/12/07 05:42:32;;;;;;;10.87;5.37;;;3.50;99.90;;;;;;5074881;28;20462;-74
2020/12/07 05:45:00;;;;;;;7.80;4.80;;;3.50;99.90;;;;;;5073847;28;20434;-74
2020/12/07 05:47:27;;;;;;;8.30;5.47;;;3.40;99.90;;;;;;5074389;28;20895;-74
2020/12/07 05:49:55;;;;;;;7.83;5.47;;;3.40;99.90;;;;;;5074048;28;20492;-74
2020/12/07 05:52:46;;;;;;;6.70;5.23;;;3.40;99.90;;;;;;5074021;28;20459;-74
2020/12/07 05:55:15;;;;;;;7.07;5.67;;;3.40;99.90;;;;;;5074010;28;20412;-74
2020/12/07 05:57:48;;;;;;;8.07;5.67;;;3.40;99.90;;;;;;5074300;28;20443;-74
2020/12/07 06:00:21;;;;;;;8.37;6.43;;;3.40;99.90;;;;;;5075213;28;20942;-74
2020/12/07 06:02:51;;;;;;;6.37;5.10;;;3.40;99.90;;;;;;5073639;28;20463;-74
2020/12/07 06:05:17;;;;;;;8.13;6.50;;;3.50;99.90;;;;;;5074405;28;20983;-74
2020/12/07 06:07:49;;;;;;;6.90;6.20;;;3.50;99.90;;;;;;5074379;28;20427;-74
2020/12/07 06:10:17;;;;;;;8.20;6.03;;;3.40;99.90;;;;;;5073996;28;20855;-74
2020/12/07 06:12:52;;;;;;;7.50;6.00;;;3.40;99.90;;;;;;5073815;28;20490;-74
2020/12/07 06:15:20;;;;;;;8.40;6.60;;;3.40;99.90;;;;;;5072830;28;20438;-74
2020/12/07 06:17:50;;;;;;;7.70;6.40;;;3.40;99.90;;;;;;5072911;28;20431;-74
2020/12/07 06:20:30;;;;;;;10.23;6.47;;;3.30;99.90;;;;;;5073901;28;20455;-73
2020/12/07 06:22:58;;;;;;;9.33;6.57;;;3.30;99.90;;;;;;5074622;28;20454;-74
2020/12/07 06:25:31;;;;;;;11.50;6.87;;;3.20;99.90;;;;;;5072800;28;20462;-73
2020/12/07 06:28:03;;;;;;;7.83;6.60;;;3.20;99.90;;;;;;5074536;28;20443;-74
2020/12/07 06:30:35;;;;;;;9.07;6.40;;;3.20;99.90;;;;;;5073583;28;20846;-73
2020/12/07 06:33:06;;;;;;;8.67;6.57;;;3.20;99.90;;;;;;5073389;28;20457;-74
2020/12/07 06:35:32;;;;;;;10.80;7.30;;;3.20;99.90;;;;;;5072897;28;20530;-74
2020/12/07 06:38:03;;;;;;;10.03;6.47;;;3.20;99.90;;;;;;5073696;28;20816;-74
2020/12/07 06:40:30;;;;;;;11.27;7.40;;;3.20;99.90;;;;;;5073041;28;21015;-74
2020/12/07 06:42:57;;;;;;;8.77;6.50;;;3.10;99.90;;;;;;5074030;28;20570;-74
2020/12/07 06:45:31;;;;;;;8.87;6.80;;;3.10;99.90;;;;;;5076078;28;20423;-73
2020/12/07 06:48:07;;;;;;;11.30;7.33;;;3.20;99.90;;;;;;5076223;28;20446;-74
2020/12/07 06:50:39;;;;;;;8.93;7.10;;;3.20;99.90;;;;;;5074337;28;20450;-74
2020/12/07 06:53:36;;;;;;;7.93;6.77;;;3.30;99.90;;;;;;5074744;28;20740;-74
2020/12/07 06:56:03;;;;;;;10.40;7.13;;;3.40;99.90;;;;;;5076590;28;20641;-74
2020/12/07 06:58:31;;;;;;;9.47;7.03;;;3.30;99.90;;;;;;5081271;28;20642;-73
2020/12/07 07:01:07;;;;;;;11.67;8.40;;;3.40;99.90;;;;;;5080963;28;20435;-74
2020/12/07 07:03:34;;;;;;;10.47;7.33;;;3.40;99.90;;;;;;5073886;28;20443;-74
2020/12/07 07:06:07;;;;;;;12.30;8.10;;;3.40;99.90;;;;;;5074070;28;20501;-74
2020/12/07 07:08:37;;;;;;;10.67;6.93;;;3.40;99.90;;;;;;5074289;28;20473;-74
2020/12/07 07:11:04;;;;;;;9.10;6.93;;;3.40;99.90;;;;;;5073070;28;20520;-74
2020/12/07 07:13:30;;;;;;;9.93;7.10;;;3.40;99.90;;;;;;5073175;28;20870;-74
2020/12/07 07:15:57;;;;;;;13.23;8.07;;;3.40;99.90;;;;;;5071779;28;20435;-78
2020/12/07 07:18:24;;;;;;;11.70;7.43;;;3.40;99.90;;;;;;5073493;28;20454;-74
2020/12/07 07:20:51;;;;;;;12.73;7.20;;;3.40;99.90;;;;;;5072462;28;20427;-74
2020/12/07 07:23:17;;;;;;;11.40;9.10;;;3.50;99.90;;;;;;5072699;28;20442;-74
2020/12/07 07:25:52;;;;;;;9.30;8.30;;;3.60;99.90;;;;;;5072705;28;20490;-74
2020/12/07 07:28:18;;;;;;;13.10;8.53;;;3.70;99.90;;;;;;5072753;28;20447;-74
2020/12/07 07:30:45;;;;;;;12.20;8.60;;;3.70;99.90;;;;;;5072770;28;20561;-74
2020/12/07 07:33:11;;;;;;;11.53;8.00;;;3.70;99.90;;;;;;5072851;28;20447;-74
2020/12/07 07:35:39;;;;;;;9.63;7.80;;;3.80;99.90;;;;;;5073451;28;20439;-74
2020/12/07 07:38:05;;;;;;;11.13;8.03;;;3.80;99.90;;;;;;5073102;28;20477;-75
2020/12/07 07:40:32;;;;;;;13.30;8.23;;;3.80;99.90;;;;;;5072929;28;20616;-74
2020/12/07 07:43:01;;;;;;;11.70;7.57;;;3.80;99.90;;;;;;5072860;28;20481;-74
2020/12/07 07:45:32;;;;;;;10.33;8.13;;;3.80;99.90;;;;;;5072669;28;20457;-74
2020/12/07 07:48:04;;;;;;;11.00;8.17;;;3.90;99.90;;;;;;5072982;28;20434;-74
2020/12/07 08:02:32;;;;;;;10.57;7.07;;;4.00;99.90;;;;;;5072269;28;20974;-74
2020/12/07 08:16:17;;;;;;;12.70;8.30;;;4.00;99.90;;;;;;5073856;28;20435;-76
2020/12/07 08:18:44;;;;;;;12.70;8.30;;;4.10;99.90;;;;;;5073011;28;20438;-75
2020/12/07 08:21:11;;;;;;;11.63;8.00;;;4.20;99.90;;;;;;5072999;28;20455;-74
2020/12/07 08:23:38;;;;;;;9.60;7.90;;;4.30;99.90;;;;;;5073011;28;20423;-76
2020/12/07 08:26:06;;;;;;;11.07;8.30;;;4.50;99.90;;;;;;5073786;28;20963;-75
2020/12/07 08:28:34;;;;;;;10.83;8.60;;;4.70;99.90;;;;;;5076831;28;20687;-75
2020/12/07 08:31:05;;;;;;;9.70;8.00;;;4.80;99.90;;;;;;5076748;28;20439;-73
2020/12/07 08:33:33;;;;;;;12.77;7.87;;;4.90;99.90;;;;;;5076760;28;20454;-73
2020/12/07 08:36:01;;;;;;;10.67;7.47;;;5.00;99.90;;;;;;5076915;28;20505;-74
2020/12/07 08:38:30;;;;;;;9.00;6.90;;;5.10;99.90;;;;;;5077473;28;20514;-74
2020/12/07 08:41:19;;;;;;;8.37;6.53;;;5.20;99.90;;;;;;5076214;28;20450;-74
2020/12/07 08:43:47;;;;;;;9.30;7.30;;;5.30;99.90;;;;;;5072783;28;20450;-74
2020/12/07 08:46:16;;;;;;;8.70;7.07;;;5.30;99.90;;;;;;5076541;28;20470;-74
2020/12/07 08:48:43;;;;;;;8.90;6.83;;;5.40;99.90;;;;;;5076002;28;20435;-74
2020/12/07 08:51:10;;;;;;;8.90;7.03;;;5.50;99.90;;;;;;5075293;28;20427;-74
2020/12/07 08:53:37;;;;;;;8.97;7.13;;;5.60;99.90;;;;;;5075788;28;20450;-74
2020/12/07 08:56:06;;;;;;;10.40;7.00;;;5.70;99.90;;;;;;5075871;28;20920;-73
2020/12/07 08:58:33;;;;;;;9.80;7.20;;;5.80;99.90;;;;;;5075470;28;20471;-73
2020/12/07 09:01:01;;;;;;;9.20;6.97;;;5.90;99.90;;;;;;5074878;28;20440;-73
2020/12/07 09:03:28;;;;;;;8.40;7.10;;;6.00;99.90;;;;;;5075811;28;20580;-72
2020/12/07 09:05:55;;;;;;;6.23;5.10;;;6.20;99.90;;;;;;5075904;28;20836;-74
2020/12/07 09:08:21;;;;;;;11.63;6.50;;;6.40;99.90;;;;;;5075485;28;20439;-74
2020/12/07 09:10:48;;;;;;;7.50;6.00;;;6.60;99.90;;;;;;5074570;28;21172;-73
2020/12/07 09:13:15;;;;;;;6.77;5.53;;;6.60;99.90;;;;;;5074752;28;20458;-73
2020/12/07 09:15:42;;;;;;;7.60;6.20;;;6.70;99.90;;;;;;5074800;28;20427;-73
2020/12/07 09:18:09;;;;;;;7.03;5.90;;;6.70;99.90;;;;;;5074872;28;20451;-74
2020/12/07 09:20:36;;;;;;;6.30;5.70;;;6.70;99.90;;;;;;5074107;28;20439;-73
2020/12/07 09:23:02;;;;;;;6.03;5.40;;;6.70;99.90;;;;;;5074465;28;20451;-73
2020/12/07 09:25:29;;;;;;;6.90;5.23;;;6.70;99.90;;;;;;5076594;28;20451;-74
2020/12/07 09:27:55;;;;;;;6.90;5.60;;;6.90;99.90;;;;;;5076335;28;20479;-73
2020/12/07 09:30:22;;;;;;;7.17;6.13;;;7.10;99.90;;;;;;5076077;28;20443;-73
2020/12/07 09:32:49;;;;;;;5.30;4.80;;;7.20;99.90;;;;;;5075867;28;20455;-73
2020/12/07 09:35:16;;;;;;;6.00;5.03;;;7.30;99.90;;;;;;5075845;28;20439;-73
2020/12/07 09:37:43;;;;;;;6.67;5.40;;;7.30;99.90;;;;;;5075500;28;20512;-73
2020/12/07 09:40:11;;;;;;;6.00;5.03;;;7.20;99.90;;;;;;5075513;28;20428;-73
2020/12/07 09:42:38;;;;;;;6.40;5.03;;;7.10;99.90;;;;;;5076249;28;20467;-73
2020/12/07 09:45:05;;;;;;;8.07;5.90;;;7.00;99.90;;;;;;5075629;28;20492;-73
2020/12/07 09:47:32;;;;;;;8.13;6.13;;;6.90;99.90;;;;;;5075232;28;20466;-73
2020/12/07 09:49:59;;;;;;;5.90;5.30;;;6.90;99.90;;;;;;5075767;28;20443;-73
2020/12/07 09:52:26;;;;;;;6.50;5.10;;;6.90;99.90;;;;;;5074813;28;20485;-73
2020/12/07 09:54:53;;;;;;;6.63;5.90;;;6.90;99.90;;;;;;5075561;28;20494;-75
2020/12/07 09:57:19;;;;;;;7.07;5.60;;;6.80;99.90;;;;;;5075228;28;20436;-74
2020/12/07 09:59:48;;;;;;;6.10;5.00;;;6.70;99.90;;;;;;5075346;28;20469;-74
2020/12/07 10:02:15;;;;;;;7.17;5.37;;;6.70;99.90;;;;;;5075146;28;20863;-73
2020/12/07 10:04:42;;;;;;;9.20;7.20;;;6.80;99.90;;;;;;5074869;28;20455;-74
2020/12/07 10:07:09;;;;;;;9.17;5.13;;;7.00;99.90;;;;;;5075634;28;21030;-73
2020/12/07 10:09:36;;;;;;;5.77;4.90;;;7.20;99.90;;;;;;5074904;28;20466;-73
2020/12/07 10:12:03;;;;;;;6.63;5.93;;;7.40;99.90;;;;;;5074880;28;20817;-74
2020/12/07 10:14:29;;;;;;;6.17;5.00;;;7.90;99.90;;;;;;5075247;28;20435;-74
2020/12/07 10:16:57;;;;;;;6.70;5.07;;;8.60;99.90;;;;;;5074954;28;20508;-74
2020/12/07 10:19:23;;;;;;;4.97;4.47;;;9.40;99.90;;;;;;5074649;28;20443;-75
2020/12/07 10:21:50;;;;;;;6.27;4.80;;;10.10;99.90;;;;;;5074518;28;20452;-75
2020/12/07 10:24:17;;;;;;;5.47;4.93;;;10.70;99.90;;;;;;5074835;28;20435;-75
2020/12/07 10:26:44;;;;;;;6.90;5.60;;;10.90;99.90;;;;;;5074520;28;20497;-75
2020/12/07 10:29:10;;;;;;;5.80;5.27;;;10.60;99.90;;;;;;5075487;28;20431;-74
2020/12/07 10:31:37;;;;;;;6.70;4.93;;;10.20;99.90;;;;;;5075305;28;20447;-74
2020/12/07 10:34:03;;;;;;;5.57;4.73;;;10.20;99.90;;;;;;5075171;28;20436;-74
2020/12/07 10:36:31;;;;;;;5.90;4.67;;;10.20;99.90;;;;;;5074404;28;20454;-74
2020/12/07 10:38:57;;;;;;;4.40;3.43;;;9.80;99.90;;;;;;5073261;28;20431;-74
2020/12/07 10:41:27;;;;;;;9.43;4.87;;;9.40;99.90;;;;;;5074408;28;20751;-74
2020/12/07 10:43:54;;;;;;;6.30;4.93;;;8.80;99.90;;;;;;5073490;28;20423;-74
2020/12/07 10:46:21;;;;;;;6.03;5.00;;;8.40;99.90;;;;;;5072967;28;20494;-74
2020/12/07 10:48:47;;;;;;;5.20;4.23;;;8.10;99.90;;;;;;5072575;28;20435;-74
2020/12/07 10:51:16;;;;;;;7.90;5.70;;;7.80;99.90;;;;;;5072830;28;20451;-74
2020/12/07 10:53:42;;;;;;;4.63;4.23;;;7.60;99.90;;;;;;5073270;28;20574;-74
2020/12/07 10:56:10;;;;;;;5.30;4.80;;;7.50;99.90;;;;;;5073378;28;20990;-74
2020/12/07 10:58:38;;;;;;;4.73;4.33;;;7.50;99.90;;;;;;5073337;28;20477;-74
2020/12/07 11:01:05;;;;;;;4.73;4.30;;;7.50;99.90;;;;;;5072938;28;20447;-74
2020/12/07 11:03:32;;;;;;;5.90;4.70;;;7.50;99.90;;;;;;5073198;28;20551;-74
2020/12/07 11:05:58;;;;;;;5.60;4.70;;;7.70;99.90;;;;;;5073183;28;20450;-75
2020/12/07 11:08:32;;;;;;;9.20;4.07;;;7.80;99.90;;;;;;5073230;28;20439;-74
2020/12/07 11:10:58;;;;;;;5.33;4.17;;;8.00;99.90;;;;;;5073209;28;20436;-74
2020/12/07 11:13:28;;;;;;;4.47;3.90;;;8.20;99.90;;;;;;5073409;28;20444;-74
2020/12/07 11:15:58;;;;;;;4.50;3.50;;;8.60;99.90;;;;;;5073238;28;20439;-74
2020/12/07 11:18:26;;;;;;;5.47;3.47;;;8.90;99.90;;;;;;5073364;28;20852;-74
2020/12/07 11:20:52;;;;;;;3.87;3.43;;;8.90;99.90;;;;;;5072538;28;20797;-74
2020/12/07 11:23:19;;;;;;;4.53;4.03;;;8.80;99.90;;;;;;5073229;28;20435;-74
2020/12/07 11:25:45;;;;;;;5.30;3.93;;;8.50;99.90;;;;;;5073352;28;20913;-74
2020/12/07 11:28:12;;;;;;;5.57;4.53;;;8.20;99.90;;;;;;5072945;28;20475;-74
2020/12/07 11:30:38;;;;;;;6.03;3.90;;;8.20;99.90;;;;;;5072636;28;20431;-75
2020/12/07 11:33:06;;;;;;;4.80;4.30;;;8.10;99.90;;;;;;5073404;28;20837;-75
2020/12/07 11:35:32;;;;;;;6.07;5.40;;;8.10;99.90;;;;;;5072827;28;20442;-74
2020/12/07 11:38:03;;;;;;;5.33;3.97;;;8.10;99.90;;;;;;5072603;28;20438;-74
2020/12/07 11:40:46;;;;;;;4.73;3.77;;;8.00;99.90;;;;;;5072716;28;20427;-74
2020/12/07 11:43:17;;;;;;;5.67;4.07;;;7.90;99.90;;;;;;5072693;28;20554;-74
2020/12/07 11:45:44;;;;;;;5.30;3.40;;;7.80;99.90;;;;;;5073072;28;20440;-74
2020/12/07 11:48:12;;;;;;;5.17;3.70;;;7.80;99.90;;;;;;5074070;28;20510;-74
2020/12/07 11:50:39;;;;;;;5.40;3.87;;;7.60;99.90;;;;;;5073002;28;20860;-74
2020/12/07 11:53:05;;;;;;;5.53;4.17;;;7.50;99.90;;;;;;5074327;28;20931;-75
2020/12/07 11:55:32;;;;;;;4.03;3.63;;;7.40;99.90;;;;;;5074114;28;20436;-74
2020/12/07 11:57:58;;;;;;;6.10;4.10;;;7.30;99.90;;;;;;5071892;28;20439;-74
2020/12/07 12:00:25;;;;;;;6.70;3.97;;;7.20;99.90;;;;;;5074749;28;20440;-74
2020/12/07 12:02:52;;;;;;;3.93;3.30;;;7.10;99.90;;;;;;5081366;28;20455;-74
2020/12/07 12:05:19;;;;;;;4.90;3.97;;;6.90;99.90;;;;;;5080144;28;20924;-74
2020/12/07 12:07:46;;;;;;;4.87;4.37;;;6.90;99.90;;;;;;5079833;28;20478;-74
2020/12/07 12:10:12;;;;;;;5.90;4.43;;;6.90;99.90;;;;;;5077364;28;20836;-74
2020/12/07 12:12:39;;;;;;;4.30;3.70;;;6.90;99.90;;;;;;5078220;28;20459;-74
2020/12/07 12:15:06;;;;;;;5.10;4.20;;;6.90;99.90;;;;;;5077330;28;20781;-74
2020/12/07 12:17:32;;;;;;;8.33;4.70;;;6.90;99.90;;;;;;5078133;28;20929;-74
2020/12/07 12:19:59;;;;;;;5.33;4.20;;;6.90;99.90;;;;;;5077237;28;20465;-74
2020/12/07 12:22:26;;;;;;;6.13;4.30;;;7.10;99.90;;;;;;5077142;28;20458;-74
2020/12/07 12:24:53;;;;;;;3.90;3.50;;;7.20;99.90;;;;;;5076931;28;20431;-74
2020/12/07 12:27:20;;;;;;;4.33;3.93;;;7.20;99.90;;;;;;5076927;28;20491;-74
2020/12/07 12:29:47;;;;;;;5.73;3.93;;;7.20;99.90;;;;;;5077689;28;20431;-74
2020/12/07 12:32:13;;;;;;;4.93;4.30;;;7.40;99.90;;;;;;5076774;28;20495;-74
2020/12/07 12:34:40;;;;;;;4.20;3.53;;;7.40;99.90;;;;;;5077402;28;20751;-74
2020/12/07 12:37:07;;;;;;;4.83;4.27;;;7.50;99.90;;;;;;5077769;28;20434;-74
2020/12/07 12:39:35;;;;;;;4.23;3.50;;;7.70;99.90;;;;;;5074476;28;20447;-74
2020/12/07 12:42:01;;;;;;;4.30;2.67;;;7.80;99.90;;;;;;5067225;28;20463;-74
2020/12/07 12:44:28;;;;;;;3.80;3.40;;;7.90;99.90;;;;;;5064670;28;20453;-74
2020/12/07 12:46:54;;;;;;;5.17;3.70;;;7.80;99.90;;;;;;5075245;28;20486;-74
2020/12/07 12:49:21;;;;;;;4.00;3.40;;;7.70;99.90;;;;;;5077254;28;20462;-74
2020/12/07 12:51:48;;;;;;;4.83;3.80;;;7.50;99.90;;;;;;5074841;28;20463;-74
2020/12/07 12:54:16;;;;;;;6.57;3.93;;;7.30;99.90;;;;;;5072555;28;20448;-73
2020/12/07 12:56:43;;;;;;;8.30;4.90;;;7.10;99.90;;;;;;5070989;28;20440;-74
2020/12/07 12:59:10;;;;;;;6.10;5.00;;;7.10;99.90;;;;;;5069963;28;20455;-74
2020/12/07 13:01:37;;;;;;;4.37;3.80;;;7.10;99.90;;;;;;5065579;28;20456;-74
2020/12/07 13:04:04;;;;;;;5.77;3.97;;;7.10;99.90;;;;;;5071764;28;20462;-74
2020/12/07 13:06:34;;;;;;;4.47;3.53;;;7.10;99.90;;;;;;5064975;28;20507;-75
2020/12/07 13:09:01;;;;;;;4.30;3.77;;;7.10;99.90;;;;;;5064851;28;20441;-74
2020/12/07 13:11:31;;;;;;;4.50;4.10;;;7.00;99.90;;;;;;5064734;28;20486;-74
2020/12/07 13:14:00;;;;;;;4.60;3.63;;;7.00;99.90;;;;;;5068371;28;20439;-75
2020/12/07 13:16:30;;;;;;;4.70;3.30;;;6.90;99.90;;;;;;5076729;28;20561;-75
2020/12/07 13:18:58;;;;;;;4.77;4.07;;;6.90;99.90;;;;;;5076125;28;20436;-75